AirNav   Pilot Hours Calculator
 
 1402 users online  

69CL Medlock Field Airport
Davis, California, USA

GOING TO DAVIS?


FAA INFORMATION EFFECTIVE 23 MAY 2019

Location

FAA Identifier: 69CL
Lat/Long: 38-36-55.6600N / 121-44-50.8640W
38-36.927667N / 121-44.847733W
38.6154611 / -121.7474622
(estimated)
Elevation: 48 ft. / 15 m (estimated)
Variation: 16E (1985)
From city: 3 miles N of DAVIS, CA
Time zone: UTC -7 (UTC -8 during Standard Time)
Zip code: 95776

Airport Operations

Airport use: Private use. Permission required prior to landing
Activation date: 04/1974
Control tower: no
ARTCC: OAKLAND CENTER
FSS: RANCHO MURIETA FLIGHT SERVICE STATION
Attendance: MON-SAT DAYLIGHT HOURS
Wind indicator: yes
Segmented circle: no

Airport Communications

WX AWOS-3 at EDU (5 nm S): 119.025 (530-754-6839)
WX AWOS-3 at DWA (6 nm SW): 125.775 (530-750-2759)
WX ASOS at SMF (9 nm NE): PHONE 916-649-3996
WX ASOS at SAC (13 nm SE): PHONE 916-421-0923
WX AWOS-3 at MCC (17 nm E): 125.975 (916-641-1272)
WX ASOS at VCB (17 nm SW): 134.75 (707-448-1594)

Nearby radio navigation aids

VOR radial/distance  VOR name  Freq  Var
SACr301/13.8SACRAMENTO VORTAC115.2017E
MCCr242/16.4MC CLELLAN VOR/DME109.2017E
MYVr180/30.1MARYSVILLE VOR/DME110.8016E
ILAr136/30.3WILLIAMS VORTAC114.4018E
CCRr005/37.0CONCORD VOR/DME117.0017E
SGDr031/39.4SCAGGS ISLAND VORTAC112.1017E

Airport Services

Airframe service: NONE
Powerplant service: NONE

Runway Information

Runway 18/36

Dimensions: 2600 x 50 ft. / 792 x 15 m
Surface: asphalt
RUNWAY 18  RUNWAY 36
Traffic pattern: leftleft

Airport Ownership and Management from official FAA records

Ownership: Privately-owned
Owner: RALPH HOLSCLAW
41167 COUNTY ROAD 27
WOODLAND, CA 95776
Phone 916-662-7341
Manager: RALPH HOLSCLAW
41167 COUNTY ROAD 27
WOODLAND, CA 95776
Phone 916-662-7341

Airport Operational Statistics

Aircraft based on the field: 15
Single engine airplanes: 15
    

Additional Remarks

FOR CD CTC NORCAL APCH AT 916-361-6874.

Instrument Procedures

There are no published instrument procedures at 69CL.

Some nearby airports with instrument procedures:

KEDU - University Airport (5 nm S)
KDWA - Yolo County Airport (6 nm SW)
O41 - Watts-Woodland Airport (7 nm NW)
KSMF - Sacramento International Airport (9 nm NE)
KSAC - Sacramento Executive Airport (13 nm SE)
KMCC - Mc Clellan Airfield (17 nm E)
KVCB - Nut Tree Airport (17 nm SW)
 
Loc | Ops | Rwys | IFR | FBO | Links
Com | Nav | Svcs | Stats | Notes

Sonoma Jet Center
 
Area around 69CL (Medlock Field Airport)
 
Road maps at: MapQuest Bing Google
 
Aerial photo
No photo
 
Sectional chart

 
Airport distance calculator
Flying to Medlock Field Airport? Find the distance to fly.

From to 69CL

Sunrise and sunset
Times for 24-May-2019
 Local
(UTC-7)
 Zulu
(UTC)
Morning civil twilight05:1912:19
Sunrise05:4912:49
Sunset20:1803:18
Evening civil twilight20:4903:49

Current date and time
Zulu (UTC)  24-May-2019 18:21:47
Local (UTC-7)  24-May-2019 11:21:47
 
METAR
KEDU 
5nm S 
241800Z AUTO 14004KT 10SM CLR 29/21 A3001 RMK AO1
KSMF 
9nm NE 
241753Z 18006KT 10SM FEW250 19/12 A3000 RMK AO2 SLP157 T01940122 10200 20122 51004
KSAC 
14nm SE 
241753Z 21008KT 180V240 10SM CLR 18/12 A3001 RMK AO2 SLP162 T01830117 50003
KMCC 
17nm E 
241800Z AUTO 19006KT 7SM CLR 20/11 A3002 RMK AO2
KVCB 
17nm SW 
241753Z AUTO 21008KT 10SM CLR 20/12 A3001 RMK AO2 SLP161 T02000122 10200 20128 53001
TAF
KSMF 
9nm NE 
241738Z 2418/2518 18008KT P6SM SCT040 BKN250 FM251100 16009KT P6SM OVC025
KSAC 
14nm SE 
241738Z 2418/2518 22008KT P6SM SCT040 BKN250 FM251000 18007KT P6SM OVC025
KMCC 
17nm E 
241738Z 2418/2518 19009KT P6SM SCT040 BKN250 FM251200 15008KT P6SM OVC025
NOTAMs
Click for the latest NOTAMs
NOTAMs are issued by the DoD/FAA and will open in a separate window not controlled by AirNav.

 

 
 

Would you like to see your business listed on this page?

 If your business provides an interesting product or service to pilots, flight crews, aircraft, or users of the Medlock Field Airport, you should consider listing it here.  To start the listing process, click on the button below
 
Add a business
 

Other Pages about Medlock Field Airport

Update a link
 
Copyright © AirNav, LLC. All rights reserved. Privacy Policy  Contact